sensor_id;sensor_type;location;lat;lon;timestamp;P1;durP1;ratioP1;P2;durP2;ratioP2
11823;SDS011;5969;50.780;7.726;2023-12-07T00:01:14;22.40;;;16.27;;
11823;SDS011;5969;50.780;7.726;2023-12-07T00:03:41;18.42;;;15.70;;
11823;SDS011;5969;50.780;7.726;2023-12-07T00:06:09;19.38;;;16.15;;
11823;SDS011;5969;50.780;7.726;2023-12-07T00:08:36;17.75;;;14.82;;
11823;SDS011;5969;50.780;7.726;2023-12-07T00:11:03;17.75;;;15.63;;
11823;SDS011;5969;50.780;7.726;2023-12-07T00:13:31;16.33;;;14.25;;
11823;SDS011;5969;50.780;7.726;2023-12-07T00:15:58;21.65;;;15.13;;
11823;SDS011;5969;50.780;7.726;2023-12-07T00:18:25;18.38;;;16.20;;
11823;SDS011;5969;50.780;7.726;2023-12-07T00:20:52;21.17;;;16.38;;
11823;SDS011;5969;50.780;7.726;2023-12-07T00:23:20;20.50;;;16.55;;
11823;SDS011;5969;50.780;7.726;2023-12-07T00:25:48;20.48;;;16.25;;
11823;SDS011;5969;50.780;7.726;2023-12-07T00:28:15;17.95;;;15.02;;
11823;SDS011;5969;50.780;7.726;2023-12-07T00:30:42;20.75;;;16.95;;
11823;SDS011;5969;50.780;7.726;2023-12-07T00:33:09;18.90;;;15.35;;
11823;SDS011;5969;50.780;7.726;2023-12-07T00:35:36;19.27;;;15.35;;
11823;SDS011;5969;50.780;7.726;2023-12-07T00:38:04;19.00;;;16.88;;
11823;SDS011;5969;50.780;7.726;2023-12-07T00:40:34;17.17;;;15.15;;
11823;SDS011;5969;50.780;7.726;2023-12-07T00:43:03;18.95;;;15.93;;
11823;SDS011;5969;50.780;7.726;2023-12-07T00:45:30;19.48;;;16.27;;
11823;SDS011;5969;50.780;7.726;2023-12-07T00:47:58;19.80;;;16.70;;
11823;SDS011;5969;50.780;7.726;2023-12-07T00:50:25;18.05;;;16.02;;
11823;SDS011;5969;50.780;7.726;2023-12-07T00:52:52;18.25;;;15.73;;
11823;SDS011;5969;50.780;7.726;2023-12-07T00:55:19;18.98;;;15.57;;
11823;SDS011;5969;50.780;7.726;2023-12-07T00:57:48;18.10;;;14.93;;
11823;SDS011;5969;50.780;7.726;2023-12-07T01:00:15;17.05;;;14.90;;
11823;SDS011;5969;50.780;7.726;2023-12-07T01:02:42;18.35;;;15.77;;
11823;SDS011;5969;50.780;7.726;2023-12-07T01:05:09;17.48;;;14.73;;
11823;SDS011;5969;50.780;7.726;2023-12-07T01:07:36;17.92;;;16.05;;
11823;SDS011;5969;50.780;7.726;2023-12-07T01:10:04;19.23;;;16.17;;
11823;SDS011;5969;50.780;7.726;2023-12-07T01:12:31;18.05;;;15.32;;
11823;SDS011;5969;50.780;7.726;2023-12-07T01:14:59;19.30;;;15.90;;
11823;SDS011;5969;50.780;7.726;2023-12-07T01:17:26;22.58;;;16.85;;
11823;SDS011;5969;50.780;7.726;2023-12-07T01:19:53;23.30;;;17.30;;
11823;SDS011;5969;50.780;7.726;2023-12-07T01:22:20;19.67;;;15.63;;
11823;SDS011;5969;50.780;7.726;2023-12-07T01:24:47;20.10;;;16.08;;
11823;SDS011;5969;50.780;7.726;2023-12-07T01:27:14;19.80;;;16.25;;
11823;SDS011;5969;50.780;7.726;2023-12-07T01:29:41;21.77;;;17.05;;
11823;SDS011;5969;50.780;7.726;2023-12-07T01:32:10;20.35;;;15.93;;
11823;SDS011;5969;50.780;7.726;2023-12-07T01:34:37;21.17;;;15.68;;
11823;SDS011;5969;50.780;7.726;2023-12-07T01:37:04;19.75;;;17.02;;
11823;SDS011;5969;50.780;7.726;2023-12-07T01:39:31;19.15;;;16.52;;
11823;SDS011;5969;50.780;7.726;2023-12-07T01:41:58;20.42;;;15.60;;
11823;SDS011;5969;50.780;7.726;2023-12-07T01:44:25;18.65;;;15.55;;
11823;SDS011;5969;50.780;7.726;2023-12-07T01:46:53;21.35;;;16.65;;
11823;SDS011;5969;50.780;7.726;2023-12-07T01:49:21;19.63;;;17.00;;
11823;SDS011;5969;50.780;7.726;2023-12-07T01:51:48;23.27;;;17.40;;
11823;SDS011;5969;50.780;7.726;2023-12-07T01:54:15;20.60;;;17.02;;
11823;SDS011;5969;50.780;7.726;2023-12-07T01:56:43;20.90;;;16.77;;
11823;SDS011;5969;50.780;7.726;2023-12-07T01:59:11;22.13;;;16.42;;
11823;SDS011;5969;50.780;7.726;2023-12-07T02:01:38;21.05;;;16.77;;
11823;SDS011;5969;50.780;7.726;2023-12-07T02:04:05;23.40;;;16.38;;
11823;SDS011;5969;50.780;7.726;2023-12-07T02:06:33;20.33;;;16.02;;
11823;SDS011;5969;50.780;7.726;2023-12-07T02:09:00;19.95;;;16.98;;
11823;SDS011;5969;50.780;7.726;2023-12-07T02:11:28;19.67;;;16.30;;
11823;SDS011;5969;50.780;7.726;2023-12-07T02:13:55;21.83;;;16.58;;
11823;SDS011;5969;50.780;7.726;2023-12-07T02:16:23;19.20;;;16.00;;
11823;SDS011;5969;50.780;7.726;2023-12-07T02:18:55;20.60;;;17.25;;
11823;SDS011;5969;50.780;7.726;2023-12-07T02:21:25;22.08;;;17.05;;
11823;SDS011;5969;50.780;7.726;2023-12-07T02:23:54;20.48;;;17.23;;
11823;SDS011;5969;50.780;7.726;2023-12-07T02:26:21;20.90;;;16.42;;
11823;SDS011;5969;50.780;7.726;2023-12-07T02:28:50;20.73;;;17.25;;
11823;SDS011;5969;50.780;7.726;2023-12-07T02:31:18;21.67;;;15.98;;
11823;SDS011;5969;50.780;7.726;2023-12-07T02:33:45;22.50;;;16.42;;
11823;SDS011;5969;50.780;7.726;2023-12-07T02:36:13;22.33;;;16.88;;
11823;SDS011;5969;50.780;7.726;2023-12-07T02:38:41;21.23;;;17.55;;
11823;SDS011;5969;50.780;7.726;2023-12-07T02:41:10;20.65;;;17.73;;
11823;SDS011;5969;50.780;7.726;2023-12-07T02:43:37;21.63;;;17.42;;
11823;SDS011;5969;50.780;7.726;2023-12-07T02:46:06;20.75;;;17.30;;
11823;SDS011;5969;50.780;7.726;2023-12-07T02:48:33;20.60;;;16.98;;
11823;SDS011;5969;50.780;7.726;2023-12-07T02:51:00;20.77;;;17.45;;
11823;SDS011;5969;50.780;7.726;2023-12-07T02:53:27;21.65;;;16.85;;
11823;SDS011;5969;50.780;7.726;2023-12-07T02:55:54;20.55;;;16.85;;
11823;SDS011;5969;50.780;7.726;2023-12-07T02:58:21;19.92;;;16.77;;
11823;SDS011;5969;50.780;7.726;2023-12-07T03:00:48;21.48;;;16.92;;
11823;SDS011;5969;50.780;7.726;2023-12-07T03:03:17;21.02;;;16.13;;
11823;SDS011;5969;50.780;7.726;2023-12-07T03:05:44;20.35;;;17.48;;
11823;SDS011;5969;50.780;7.726;2023-12-07T03:08:11;23.10;;;17.63;;
11823;SDS011;5969;50.780;7.726;2023-12-07T03:10:38;23.35;;;17.52;;
11823;SDS011;5969;50.780;7.726;2023-12-07T03:13:05;19.83;;;15.20;;
11823;SDS011;5969;50.780;7.726;2023-12-07T03:15:32;20.88;;;16.23;;
11823;SDS011;5969;50.780;7.726;2023-12-07T03:17:59;20.05;;;15.98;;
11823;SDS011;5969;50.780;7.726;2023-12-07T03:20:27;17.88;;;15.65;;
11823;SDS011;5969;50.780;7.726;2023-12-07T03:22:54;18.65;;;15.60;;
11823;SDS011;5969;50.780;7.726;2023-12-07T03:25:21;19.20;;;14.95;;
11823;SDS011;5969;50.780;7.726;2023-12-07T03:27:48;16.55;;;14.23;;
11823;SDS011;5969;50.780;7.726;2023-12-07T03:30:16;18.58;;;14.80;;
11823;SDS011;5969;50.780;7.726;2023-12-07T03:32:43;18.95;;;14.85;;
11823;SDS011;5969;50.780;7.726;2023-12-07T03:35:10;18.00;;;14.43;;
11823;SDS011;5969;50.780;7.726;2023-12-07T03:37:38;18.13;;;14.45;;
11823;SDS011;5969;50.780;7.726;2023-12-07T03:40:06;17.75;;;14.75;;
11823;SDS011;5969;50.780;7.726;2023-12-07T03:42:34;19.17;;;14.82;;
11823;SDS011;5969;50.780;7.726;2023-12-07T03:45:01;16.98;;;14.40;;
11823;SDS011;5969;50.780;7.726;2023-12-07T03:47:28;18.17;;;14.65;;
11823;SDS011;5969;50.780;7.726;2023-12-07T03:49:55;16.77;;;13.93;;
11823;SDS011;5969;50.780;7.726;2023-12-07T03:52:22;15.27;;;13.40;;
11823;SDS011;5969;50.780;7.726;2023-12-07T03:54:50;17.67;;;14.63;;
11823;SDS011;5969;50.780;7.726;2023-12-07T03:57:18;16.13;;;13.73;;
11823;SDS011;5969;50.780;7.726;2023-12-07T03:59:45;14.57;;;13.00;;
11823;SDS011;5969;50.780;7.726;2023-12-07T04:02:12;16.77;;;13.50;;
11823;SDS011;5969;50.780;7.726;2023-12-07T04:04:39;15.52;;;13.88;;
11823;SDS011;5969;50.780;7.726;2023-12-07T04:07:07;14.40;;;12.90;;
11823;SDS011;5969;50.780;7.726;2023-12-07T04:09:34;15.48;;;13.10;;
11823;SDS011;5969;50.780;7.726;2023-12-07T04:12:02;16.15;;;13.07;;
11823;SDS011;5969;50.780;7.726;2023-12-07T04:14:29;15.10;;;13.05;;
11823;SDS011;5969;50.780;7.726;2023-12-07T04:16:56;15.00;;;12.73;;
11823;SDS011;5969;50.780;7.726;2023-12-07T04:19:23;15.20;;;12.50;;
11823;SDS011;5969;50.780;7.726;2023-12-07T04:21:50;14.93;;;12.95;;
11823;SDS011;5969;50.780;7.726;2023-12-07T04:24:18;16.63;;;11.93;;
11823;SDS011;5969;50.780;7.726;2023-12-07T04:26:45;13.98;;;12.20;;
11823;SDS011;5969;50.780;7.726;2023-12-07T04:29:15;14.10;;;11.95;;
11823;SDS011;5969;50.780;7.726;2023-12-07T04:31:42;13.52;;;12.07;;
11823;SDS011;5969;50.780;7.726;2023-12-07T04:34:09;14.20;;;11.82;;
11823;SDS011;5969;50.780;7.726;2023-12-07T04:36:36;12.43;;;11.05;;
11823;SDS011;5969;50.780;7.726;2023-12-07T04:39:03;13.32;;;11.25;;
11823;SDS011;5969;50.780;7.726;2023-12-07T04:41:30;12.65;;;11.32;;
11823;SDS011;5969;50.780;7.726;2023-12-07T04:43:58;13.80;;;11.85;;
11823;SDS011;5969;50.780;7.726;2023-12-07T04:46:26;16.83;;;12.23;;
11823;SDS011;5969;50.780;7.726;2023-12-07T04:48:53;11.88;;;10.52;;
11823;SDS011;5969;50.780;7.726;2023-12-07T04:51:20;15.55;;;11.45;;
11823;SDS011;5969;50.780;7.726;2023-12-07T04:53:47;15.15;;;11.88;;
11823;SDS011;5969;50.780;7.726;2023-12-07T04:56:14;13.88;;;11.65;;
11823;SDS011;5969;50.780;7.726;2023-12-07T04:58:41;13.23;;;11.82;;
11823;SDS011;5969;50.780;7.726;2023-12-07T05:01:08;13.70;;;11.88;;
11823;SDS011;5969;50.780;7.726;2023-12-07T05:03:37;13.13;;;11.68;;
11823;SDS011;5969;50.780;7.726;2023-12-07T05:06:04;14.50;;;11.95;;
11823;SDS011;5969;50.780;7.726;2023-12-07T05:08:32;14.52;;;12.25;;
11823;SDS011;5969;50.780;7.726;2023-12-07T05:10:59;14.88;;;11.75;;
11823;SDS011;5969;50.780;7.726;2023-12-07T05:13:26;15.48;;;12.30;;
11823;SDS011;5969;50.780;7.726;2023-12-07T05:15:53;15.93;;;12.52;;
11823;SDS011;5969;50.780;7.726;2023-12-07T05:18:20;14.38;;;11.95;;
11823;SDS011;5969;50.780;7.726;2023-12-07T05:20:49;16.02;;;12.27;;
11823;SDS011;5969;50.780;7.726;2023-12-07T05:23:16;14.82;;;12.57;;
11823;SDS011;5969;50.780;7.726;2023-12-07T05:25:43;14.20;;;12.05;;
11823;SDS011;5969;50.780;7.726;2023-12-07T05:28:10;12.48;;;10.93;;
11823;SDS011;5969;50.780;7.726;2023-12-07T05:30:37;14.38;;;11.23;;
11823;SDS011;5969;50.780;7.726;2023-12-07T05:33:04;14.82;;;11.90;;
11823;SDS011;5969;50.780;7.726;2023-12-07T05:35:33;13.07;;;11.40;;
11823;SDS011;5969;50.780;7.726;2023-12-07T05:38:01;13.50;;;11.57;;
11823;SDS011;5969;50.780;7.726;2023-12-07T05:40:29;12.75;;;10.63;;
11823;SDS011;5969;50.780;7.726;2023-12-07T05:42:57;14.23;;;11.73;;
11823;SDS011;5969;50.780;7.726;2023-12-07T05:45:24;12.45;;;10.93;;
11823;SDS011;5969;50.780;7.726;2023-12-07T05:47:51;13.02;;;11.50;;
11823;SDS011;5969;50.780;7.726;2023-12-07T05:50:18;14.38;;;11.50;;
11823;SDS011;5969;50.780;7.726;2023-12-07T05:52:46;14.93;;;10.93;;
11823;SDS011;5969;50.780;7.726;2023-12-07T05:55:15;12.95;;;11.02;;
11823;SDS011;5969;50.780;7.726;2023-12-07T05:57:44;13.52;;;10.43;;
11823;SDS011;5969;50.780;7.726;2023-12-07T06:00:12;16.20;;;11.48;;
11823;SDS011;5969;50.780;7.726;2023-12-07T06:02:41;12.55;;;11.05;;
11823;SDS011;5969;50.780;7.726;2023-12-07T06:05:08;11.63;;;10.30;;
11823;SDS011;5969;50.780;7.726;2023-12-07T06:07:36;15.55;;;12.10;;
11823;SDS011;5969;50.780;7.726;2023-12-07T06:10:03;13.52;;;11.27;;
11823;SDS011;5969;50.780;7.726;2023-12-07T06:12:31;12.23;;;10.65;;
11823;SDS011;5969;50.780;7.726;2023-12-07T06:14:58;14.65;;;11.43;;
11823;SDS011;5969;50.780;7.726;2023-12-07T06:17:26;11.57;;;10.38;;
11823;SDS011;5969;50.780;7.726;2023-12-07T06:19:53;12.98;;;11.57;;
11823;SDS011;5969;50.780;7.726;2023-12-07T06:22:20;13.77;;;11.00;;
11823;SDS011;5969;50.780;7.726;2023-12-07T06:24:47;14.20;;;11.38;;
11823;SDS011;5969;50.780;7.726;2023-12-07T06:27:15;13.60;;;12.20;;
11823;SDS011;5969;50.780;7.726;2023-12-07T06:29:44;12.57;;;11.23;;
11823;SDS011;5969;50.780;7.726;2023-12-07T06:32:11;14.77;;;11.50;;
11823;SDS011;5969;50.780;7.726;2023-12-07T06:34:39;14.57;;;10.82;;
11823;SDS011;5969;50.780;7.726;2023-12-07T06:37:07;15.05;;;11.45;;
11823;SDS011;5969;50.780;7.726;2023-12-07T06:39:35;15.90;;;12.20;;
11823;SDS011;5969;50.780;7.726;2023-12-07T06:42:02;13.10;;;11.25;;
11823;SDS011;5969;50.780;7.726;2023-12-07T06:44:29;17.27;;;12.02;;
11823;SDS011;5969;50.780;7.726;2023-12-07T06:46:58;14.00;;;11.75;;
11823;SDS011;5969;50.780;7.726;2023-12-07T06:49:28;15.18;;;12.05;;
11823;SDS011;5969;50.780;7.726;2023-12-07T06:51:55;15.85;;;12.02;;
11823;SDS011;5969;50.780;7.726;2023-12-07T06:54:22;13.30;;;11.70;;
11823;SDS011;5969;50.780;7.726;2023-12-07T06:56:49;14.77;;;11.73;;
11823;SDS011;5969;50.780;7.726;2023-12-07T06:59:17;13.05;;;11.07;;
11823;SDS011;5969;50.780;7.726;2023-12-07T07:01:45;13.02;;;11.05;;
11823;SDS011;5969;50.780;7.726;2023-12-07T07:04:13;16.17;;;12.30;;
11823;SDS011;5969;50.780;7.726;2023-12-07T07:06:41;15.63;;;12.23;;
11823;SDS011;5969;50.780;7.726;2023-12-07T07:09:09;14.13;;;11.80;;
11823;SDS011;5969;50.780;7.726;2023-12-07T07:11:37;15.27;;;12.43;;
11823;SDS011;5969;50.780;7.726;2023-12-07T07:14:04;14.32;;;11.77;;
11823;SDS011;5969;50.780;7.726;2023-12-07T07:16:31;15.52;;;12.32;;
11823;SDS011;5969;50.780;7.726;2023-12-07T07:18:58;13.25;;;11.85;;
11823;SDS011;5969;50.780;7.726;2023-12-07T07:21:27;13.30;;;10.93;;
11823;SDS011;5969;50.780;7.726;2023-12-07T07:23:54;13.32;;;11.77;;
11823;SDS011;5969;50.780;7.726;2023-12-07T07:26:21;13.15;;;11.75;;
11823;SDS011;5969;50.780;7.726;2023-12-07T07:28:51;15.70;;;14.05;;
11823;SDS011;5969;50.780;7.726;2023-12-07T07:31:19;14.63;;;11.50;;
11823;SDS011;5969;50.780;7.726;2023-12-07T07:33:46;14.30;;;10.98;;
11823;SDS011;5969;50.780;7.726;2023-12-07T07:36:13;12.77;;;10.70;;
11823;SDS011;5969;50.780;7.726;2023-12-07T07:38:42;14.52;;;12.25;;
11823;SDS011;5969;50.780;7.726;2023-12-07T07:41:09;14.23;;;12.57;;
11823;SDS011;5969;50.780;7.726;2023-12-07T07:43:37;12.82;;;11.48;;
11823;SDS011;5969;50.780;7.726;2023-12-07T07:46:04;12.57;;;10.30;;
11823;SDS011;5969;50.780;7.726;2023-12-07T07:48:31;13.20;;;11.80;;
11823;SDS011;5969;50.780;7.726;2023-12-07T07:50:58;14.70;;;10.98;;
11823;SDS011;5969;50.780;7.726;2023-12-07T07:53:25;14.23;;;11.40;;
11823;SDS011;5969;50.780;7.726;2023-12-07T07:55:53;14.00;;;11.00;;
11823;SDS011;5969;50.780;7.726;2023-12-07T07:58:20;12.70;;;10.40;;
11823;SDS011;5969;50.780;7.726;2023-12-07T08:00:47;15.90;;;11.80;;
11823;SDS011;5969;50.780;7.726;2023-12-07T08:03:15;14.55;;;10.95;;
11823;SDS011;5969;50.780;7.726;2023-12-07T08:05:42;13.75;;;11.38;;
11823;SDS011;5969;50.780;7.726;2023-12-07T08:08:09;13.93;;;11.13;;
11823;SDS011;5969;50.780;7.726;2023-12-07T08:10:36;14.38;;;11.48;;
11823;SDS011;5969;50.780;7.726;2023-12-07T08:13:05;15.63;;;11.00;;
11823;SDS011;5969;50.780;7.726;2023-12-07T08:15:32;16.73;;;12.68;;
11823;SDS011;5969;50.780;7.726;2023-12-07T08:18:00;16.35;;;12.35;;
11823;SDS011;5969;50.780;7.726;2023-12-07T08:20:27;16.52;;;12.52;;
11823;SDS011;5969;50.780;7.726;2023-12-07T08:22:54;15.27;;;12.68;;
11823;SDS011;5969;50.780;7.726;2023-12-07T08:25:21;14.93;;;12.63;;
11823;SDS011;5969;50.780;7.726;2023-12-07T08:27:48;14.02;;;12.00;;
11823;SDS011;5969;50.780;7.726;2023-12-07T08:30:16;14.48;;;12.98;;
11823;SDS011;5969;50.780;7.726;2023-12-07T08:32:44;12.52;;;10.93;;
11823;SDS011;5969;50.780;7.726;2023-12-07T08:35:12;14.75;;;11.00;;
11823;SDS011;5969;50.780;7.726;2023-12-07T08:37:39;12.90;;;10.88;;
11823;SDS011;5969;50.780;7.726;2023-12-07T08:40:06;11.32;;;10.13;;
11823;SDS011;5969;50.780;7.726;2023-12-07T08:42:36;12.07;;;10.45;;
11823;SDS011;5969;50.780;7.726;2023-12-07T08:45:04;10.82;;;9.55;;
11823;SDS011;5969;50.780;7.726;2023-12-07T08:47:33;12.88;;;10.80;;
11823;SDS011;5969;50.780;7.726;2023-12-07T08:50:00;11.52;;;9.48;;
11823;SDS011;5969;50.780;7.726;2023-12-07T08:52:27;11.70;;;10.23;;
11823;SDS011;5969;50.780;7.726;2023-12-07T08:54:55;11.05;;;9.85;;
11823;SDS011;5969;50.780;7.726;2023-12-07T08:57:22;11.65;;;10.38;;
11823;SDS011;5969;50.780;7.726;2023-12-07T08:59:49;11.77;;;9.88;;
11823;SDS011;5969;50.780;7.726;2023-12-07T09:02:17;10.55;;;9.32;;
11823;SDS011;5969;50.780;7.726;2023-12-07T09:04:46;12.77;;;9.88;;
11823;SDS011;5969;50.780;7.726;2023-12-07T09:07:15;12.15;;;9.65;;
11823;SDS011;5969;50.780;7.726;2023-12-07T09:09:44;10.43;;;9.32;;
11823;SDS011;5969;50.780;7.726;2023-12-07T09:12:12;11.52;;;9.55;;
11823;SDS011;5969;50.780;7.726;2023-12-07T09:14:41;11.48;;;9.25;;
11823;SDS011;5969;50.780;7.726;2023-12-07T09:17:08;11.45;;;9.88;;
11823;SDS011;5969;50.780;7.726;2023-12-07T09:19:35;11.38;;;9.38;;
11823;SDS011;5969;50.780;7.726;2023-12-07T09:22:03;13.63;;;10.02;;
11823;SDS011;5969;50.780;7.726;2023-12-07T09:24:30;10.90;;;9.23;;
11823;SDS011;5969;50.780;7.726;2023-12-07T09:26:57;12.43;;;10.25;;
11823;SDS011;5969;50.780;7.726;2023-12-07T09:29:25;11.52;;;10.30;;
11823;SDS011;5969;50.780;7.726;2023-12-07T09:31:52;12.63;;;10.07;;
11823;SDS011;5969;50.780;7.726;2023-12-07T09:34:19;11.10;;;9.43;;
11823;SDS011;5969;50.780;7.726;2023-12-07T09:36:47;14.82;;;10.88;;
11823;SDS011;5969;50.780;7.726;2023-12-07T09:39:16;12.05;;;8.93;;
11823;SDS011;5969;50.780;7.726;2023-12-07T09:41:43;11.70;;;9.15;;
11823;SDS011;5969;50.780;7.726;2023-12-07T09:44:12;13.75;;;9.30;;
11823;SDS011;5969;50.780;7.726;2023-12-07T09:46:39;10.57;;;9.35;;
11823;SDS011;5969;50.780;7.726;2023-12-07T09:49:06;12.35;;;10.18;;
11823;SDS011;5969;50.780;7.726;2023-12-07T09:51:33;10.85;;;9.75;;
11823;SDS011;5969;50.780;7.726;2023-12-07T09:54:02;11.85;;;9.35;;
11823;SDS011;5969;50.780;7.726;2023-12-07T09:56:30;11.98;;;9.25;;
11823;SDS011;5969;50.780;7.726;2023-12-07T09:58:57;12.30;;;10.05;;
11823;SDS011;5969;50.780;7.726;2023-12-07T10:01:27;11.35;;;10.07;;
11823;SDS011;5969;50.780;7.726;2023-12-07T10:06:42;11.07;;;8.80;;
11823;SDS011;5969;50.780;7.726;2023-12-07T10:09:09;11.70;;;9.25;;
11823;SDS011;5969;50.780;7.726;2023-12-07T10:11:38;9.90;;;8.90;;
11823;SDS011;5969;50.780;7.726;2023-12-07T10:14:06;10.95;;;9.23;;
11823;SDS011;5969;50.780;7.726;2023-12-07T10:16:34;10.60;;;9.50;;
11823;SDS011;5969;50.780;7.726;2023-12-07T10:19:12;10.88;;;8.98;;
11823;SDS011;5969;50.780;7.726;2023-12-07T10:21:39;11.48;;;9.18;;
11823;SDS011;5969;50.780;7.726;2023-12-07T10:24:06;11.82;;;10.20;;
11823;SDS011;5969;50.780;7.726;2023-12-07T10:26:33;11.75;;;10.27;;
11823;SDS011;5969;50.780;7.726;2023-12-07T10:29:03;13.43;;;10.02;;
11823;SDS011;5969;50.780;7.726;2023-12-07T10:31:31;12.85;;;9.73;;
11823;SDS011;5969;50.780;7.726;2023-12-07T10:33:58;13.85;;;10.25;;
11823;SDS011;5969;50.780;7.726;2023-12-07T10:36:25;12.32;;;10.50;;
11823;SDS011;5969;50.780;7.726;2023-12-07T10:38:52;11.40;;;9.75;;
11823;SDS011;5969;50.780;7.726;2023-12-07T10:41:20;13.18;;;11.60;;
11823;SDS011;5969;50.780;7.726;2023-12-07T10:43:48;10.55;;;9.45;;
11823;SDS011;5969;50.780;7.726;2023-12-07T10:46:17;10.50;;;9.40;;
11823;SDS011;5969;50.780;7.726;2023-12-07T10:48:46;11.63;;;9.18;;
11823;SDS011;5969;50.780;7.726;2023-12-07T10:51:15;10.80;;;9.35;;
11823;SDS011;5969;50.780;7.726;2023-12-07T10:53:45;10.98;;;8.93;;
11823;SDS011;5969;50.780;7.726;2023-12-07T10:56:13;10.20;;;8.50;;
11823;SDS011;5969;50.780;7.726;2023-12-07T10:58:42;10.77;;;8.48;;
11823;SDS011;5969;50.780;7.726;2023-12-07T11:01:10;8.52;;;7.72;;
11823;SDS011;5969;50.780;7.726;2023-12-07T11:03:41;10.05;;;8.30;;
11823;SDS011;5969;50.780;7.726;2023-12-07T11:06:10;10.95;;;8.98;;
11823;SDS011;5969;50.780;7.726;2023-12-07T11:08:38;10.35;;;9.20;;
11823;SDS011;5969;50.780;7.726;2023-12-07T11:11:08;14.63;;;9.60;;
11823;SDS011;5969;50.780;7.726;2023-12-07T11:13:37;9.73;;;8.73;;
11823;SDS011;5969;50.780;7.726;2023-12-07T11:16:05;9.00;;;8.10;;
11823;SDS011;5969;50.780;7.726;2023-12-07T11:18:32;11.20;;;9.68;;
11823;SDS011;5969;50.780;7.726;2023-12-07T11:21:00;9.38;;;8.15;;
11823;SDS011;5969;50.780;7.726;2023-12-07T11:23:28;10.20;;;8.93;;
11823;SDS011;5969;50.780;7.726;2023-12-07T11:25:55;9.60;;;8.13;;
11823;SDS011;5969;50.780;7.726;2023-12-07T11:28:33;9.73;;;7.97;;
11823;SDS011;5969;50.780;7.726;2023-12-07T11:31:00;8.88;;;7.88;;
11823;SDS011;5969;50.780;7.726;2023-12-07T11:33:28;8.43;;;7.53;;
11823;SDS011;5969;50.780;7.726;2023-12-07T11:36:07;10.05;;;7.97;;
11823;SDS011;5969;50.780;7.726;2023-12-07T11:38:35;9.20;;;7.90;;
11823;SDS011;5969;50.780;7.726;2023-12-07T11:41:03;8.43;;;7.30;;
11823;SDS011;5969;50.780;7.726;2023-12-07T11:43:32;11.20;;;7.60;;
11823;SDS011;5969;50.780;7.726;2023-12-07T11:46:03;9.40;;;7.65;;
11823;SDS011;5969;50.780;7.726;2023-12-07T11:48:30;8.60;;;7.70;;
11823;SDS011;5969;50.780;7.726;2023-12-07T11:50:58;8.65;;;7.60;;
11823;SDS011;5969;50.780;7.726;2023-12-07T11:53:27;8.48;;;7.20;;
11823;SDS011;5969;50.780;7.726;2023-12-07T11:55:54;8.60;;;7.15;;
11823;SDS011;5969;50.780;7.726;2023-12-07T11:58:22;9.48;;;8.13;;
11823;SDS011;5969;50.780;7.726;2023-12-07T12:00:50;8.10;;;7.28;;
11823;SDS011;5969;50.780;7.726;2023-12-07T12:03:18;8.90;;;7.63;;
11823;SDS011;5969;50.780;7.726;2023-12-07T12:05:45;9.32;;;7.95;;
11823;SDS011;5969;50.780;7.726;2023-12-07T12:08:12;10.82;;;7.63;;
11823;SDS011;5969;50.780;7.726;2023-12-07T12:10:41;8.68;;;7.53;;
11823;SDS011;5969;50.780;7.726;2023-12-07T12:13:08;10.20;;;7.38;;
11823;SDS011;5969;50.780;7.726;2023-12-07T12:15:36;9.60;;;7.60;;
11823;SDS011;5969;50.780;7.726;2023-12-07T12:18:04;10.52;;;8.05;;
11823;SDS011;5969;50.780;7.726;2023-12-07T12:20:31;9.27;;;7.65;;
11823;SDS011;5969;50.780;7.726;2023-12-07T12:22:58;9.77;;;7.05;;
11823;SDS011;5969;50.780;7.726;2023-12-07T12:25:26;8.95;;;6.63;;
11823;SDS011;5969;50.780;7.726;2023-12-07T12:27:57;7.68;;;6.85;;
11823;SDS011;5969;50.780;7.726;2023-12-07T12:30:26;9.50;;;7.35;;
11823;SDS011;5969;50.780;7.726;2023-12-07T12:32:53;8.40;;;6.95;;
11823;SDS011;5969;50.780;7.726;2023-12-07T12:35:20;8.57;;;6.80;;
11823;SDS011;5969;50.780;7.726;2023-12-07T12:37:47;8.32;;;7.50;;
11823;SDS011;5969;50.780;7.726;2023-12-07T12:40:15;8.82;;;6.90;;
11823;SDS011;5969;50.780;7.726;2023-12-07T12:42:43;9.70;;;7.13;;
11823;SDS011;5969;50.780;7.726;2023-12-07T12:45:11;7.68;;;6.88;;
11823;SDS011;5969;50.780;7.726;2023-12-07T12:47:38;8.45;;;7.30;;
11823;SDS011;5969;50.780;7.726;2023-12-07T12:50:06;8.70;;;6.88;;
11823;SDS011;5969;50.780;7.726;2023-12-07T12:52:34;8.07;;;7.28;;
11823;SDS011;5969;50.780;7.726;2023-12-07T12:55:02;8.57;;;7.10;;
11823;SDS011;5969;50.780;7.726;2023-12-07T12:57:29;10.57;;;7.88;;
11823;SDS011;5969;50.780;7.726;2023-12-07T12:59:57;9.05;;;7.68;;
11823;SDS011;5969;50.780;7.726;2023-12-07T13:02:26;8.52;;;6.90;;
11823;SDS011;5969;50.780;7.726;2023-12-07T13:04:53;7.78;;;6.55;;
11823;SDS011;5969;50.780;7.726;2023-12-07T13:07:21;10.05;;;7.40;;
11823;SDS011;5969;50.780;7.726;2023-12-07T13:09:49;8.05;;;6.75;;
11823;SDS011;5969;50.780;7.726;2023-12-07T13:12:16;7.50;;;5.93;;
11823;SDS011;5969;50.780;7.726;2023-12-07T13:14:43;9.88;;;7.05;;
11823;SDS011;5969;50.780;7.726;2023-12-07T13:17:11;7.60;;;6.13;;
11823;SDS011;5969;50.780;7.726;2023-12-07T13:19:40;8.13;;;6.00;;
11823;SDS011;5969;50.780;7.726;2023-12-07T13:22:07;8.02;;;6.63;;
11823;SDS011;5969;50.780;7.726;2023-12-07T13:24:34;6.40;;;5.45;;
11823;SDS011;5969;50.780;7.726;2023-12-07T13:27:01;6.45;;;5.65;;
11823;SDS011;5969;50.780;7.726;2023-12-07T13:29:28;6.38;;;5.57;;
11823;SDS011;5969;50.780;7.726;2023-12-07T13:31:55;6.95;;;5.35;;
11823;SDS011;5969;50.780;7.726;2023-12-07T13:34:23;6.50;;;5.75;;
11823;SDS011;5969;50.780;7.726;2023-12-07T13:36:52;6.68;;;5.55;;
11823;SDS011;5969;50.780;7.726;2023-12-07T13:39:19;6.53;;;5.85;;
11823;SDS011;5969;50.780;7.726;2023-12-07T13:41:46;7.05;;;5.07;;
11823;SDS011;5969;50.780;7.726;2023-12-07T13:44:14;8.30;;;6.10;;
11823;SDS011;5969;50.780;7.726;2023-12-07T13:46:43;6.05;;;5.45;;
11823;SDS011;5969;50.780;7.726;2023-12-07T13:49:10;6.35;;;5.75;;
11823;SDS011;5969;50.780;7.726;2023-12-07T13:51:39;7.78;;;6.32;;
11823;SDS011;5969;50.780;7.726;2023-12-07T13:54:07;7.85;;;6.22;;
11823;SDS011;5969;50.780;7.726;2023-12-07T13:56:34;7.97;;;6.05;;
11823;SDS011;5969;50.780;7.726;2023-12-07T13:59:02;7.45;;;6.65;;
11823;SDS011;5969;50.780;7.726;2023-12-07T14:01:30;8.70;;;6.65;;
11823;SDS011;5969;50.780;7.726;2023-12-07T14:03:57;11.15;;;7.13;;
11823;SDS011;5969;50.780;7.726;2023-12-07T14:06:26;6.75;;;6.03;;
11823;SDS011;5969;50.780;7.726;2023-12-07T14:08:54;8.57;;;6.97;;
11823;SDS011;5969;50.780;7.726;2023-12-07T14:11:22;11.02;;;7.20;;
11823;SDS011;5969;50.780;7.726;2023-12-07T14:13:49;14.30;;;7.80;;
11823;SDS011;5969;50.780;7.726;2023-12-07T14:16:19;9.20;;;7.57;;
11823;SDS011;5969;50.780;7.726;2023-12-07T14:18:46;11.77;;;7.47;;
11823;SDS011;5969;50.780;7.726;2023-12-07T14:21:13;9.38;;;7.75;;
11823;SDS011;5969;50.780;7.726;2023-12-07T14:23:40;9.27;;;7.40;;
11823;SDS011;5969;50.780;7.726;2023-12-07T14:26:07;9.43;;;7.55;;
11823;SDS011;5969;50.780;7.726;2023-12-07T14:28:37;7.75;;;6.57;;
11823;SDS011;5969;50.780;7.726;2023-12-07T14:31:04;11.10;;;7.63;;
11823;SDS011;5969;50.780;7.726;2023-12-07T14:33:31;9.32;;;7.47;;
11823;SDS011;5969;50.780;7.726;2023-12-07T14:35:58;8.98;;;7.20;;
11823;SDS011;5969;50.780;7.726;2023-12-07T14:38:25;10.15;;;8.38;;
11823;SDS011;5969;50.780;7.726;2023-12-07T14:40:52;12.68;;;8.52;;
11823;SDS011;5969;50.780;7.726;2023-12-07T14:43:19;10.02;;;8.43;;
11823;SDS011;5969;50.780;7.726;2023-12-07T14:45:48;9.10;;;8.05;;